Time;durP1;ratioP1;P1;durP2;ratioP2;P2;SDS_P1;SDS_P2;PMS_P1;PMS_P2;Temp;Humidity;BMP_temperature;BMP_pressure;BME280_temperature;BME280_humidity;BME280_pressure;Samples;Min_cycle;Max_cycle;Signal;HPM_P1;HPM_P2
2021/01/30 01:21:28;234245.00;0.78;404.85;82603.00;0.28;143.53;;;;;11.60;1.00;;;;;;2275644;61;887;-90
2021/01/30 01:31:32;598067.00;1.99;1030.88;121501.00;0.41;210.67;;;;;11.50;1.00;;;;;;2275801;61;948;-88
2021/01/30 01:56:45;241168.00;0.80;416.76;0.00;0.00;0.62;;;;;10.60;1.00;;;;;;2275559;61;905;-88
2021/01/30 02:17:11;0.00;0.00;0.62;0.00;0.00;0.62;;;;;10.70;1.00;;;;;;2275285;61;915;-90
2021/01/30 02:22:45;103646.00;0.35;179.86;0.00;0.00;0.62;;;;;10.70;1.00;;;;;;2275273;61;1942;-89
2021/01/30 02:30:48;343484.00;1.14;592.66;73807.00;0.25;128.34;;;;;10.30;1.00;;;;;;2279562;61;900;-89
2021/01/30 04:13:10;0.00;0.00;0.62;0.00;0.00;0.62;;;;;10.30;1.00;;;;;;2279570;61;1295;-89
2021/01/30 04:15:37;3242.00;0.01;6.24;0.00;0.00;0.62;;;;;10.30;1.00;;;;;;2442867;55;4050;31
2021/01/30 07:54:52;0.00;0.00;0.62;0.00;0.00;0.62;;;;;11.70;1.00;;;;;;2278305;61;1458;-82
2021/01/30 08:02:46;128719.00;0.43;223.12;0.00;0.00;0.62;;;;;11.90;1.00;;;;;;2282610;61;2076;-85
2021/01/30 08:05:29;190620.00;0.64;329.78;0.00;0.00;0.62;;;;;11.80;1.00;;;;;;2272175;61;1441;-84
2021/01/30 08:18:10;261099.00;0.87;451.04;0.00;0.00;0.62;;;;;11.50;1.00;;;;;;2286415;60;1403;-87
2021/01/30 08:20:45;682172.00;2.27;1176.34;61361.00;0.20;106.83;;;;;11.20;1.00;;;;;;2276259;61;996;-83
2021/01/30 08:25:53;484105.00;1.61;834.46;88379.00;0.29;153.51;;;;;11.20;1.00;;;;;;2274933;61;1341;-85
2021/01/30 08:28:26;575697.00;1.92;992.27;79852.00;0.27;138.78;;;;;11.40;1.00;;;;;;2260379;61;1014;-84
2021/01/30 08:41:48;192422.00;0.64;332.88;83742.00;0.28;145.50;;;;;12.10;1.00;;;;;;2277938;61;1158;-86
2021/01/30 08:44:53;38141.00;0.13;66.67;0.00;0.00;0.62;;;;;12.10;1.00;;;;;;2276618;61;1923;-83
2021/01/30 08:50:05;496457.00;1.65;855.72;77109.00;0.26;134.04;;;;;12.10;1.00;;;;;;2286348;60;1721;-87
2021/01/30 08:52:40;91813.00;0.31;159.44;0.00;0.00;0.62;;;;;12.20;1.00;;;;;;2280092;60;990;-85
2021/01/30 08:57:43;282756.00;0.94;488.28;0.00;0.00;0.62;;;;;12.60;1.00;;;;;;2274472;61;1406;-85
2021/01/30 09:00:28;840677.00;2.80;1452.16;85197.00;0.28;148.01;;;;;12.90;1.00;;;;;;2272823;61;996;-83
2021/01/30 09:02:56;63724.00;0.21;110.91;0.00;0.00;0.62;;;;;12.90;1.00;;;;;;2260248;61;2049;-84
2021/01/30 09:59:39;401549.00;1.34;692.47;128943.00;0.43;223.51;;;;;12.80;1.00;;;;;;2279299;61;883;-86
2021/01/30 10:21:51;229650.00;0.77;396.95;28890.00;0.10;50.66;;;;;13.90;1.00;;;;;;2516573;40;3491;31
2021/01/30 11:03:50;257129.00;0.86;444.21;0.00;0.00;0.62;;;;;13.90;1.00;;;;;;2517694;39;3481;31
2021/01/30 12:03:18;65408.00;0.22;113.82;0.00;0.00;0.62;;;;;13.40;1.00;;;;;;2520876;39;3454;31
2021/01/30 12:45:11;171301.00;0.57;296.51;80868.00;0.27;140.54;;;;;14.10;1.00;;;;;;2431902;39;3798;31
2021/01/30 12:52:33;347992.00;1.16;600.41;79075.00;0.26;137.44;;;;;14.20;1.00;;;;;;2276062;61;929;-87
2021/01/30 13:02:30;316573.00;1.06;546.41;80302.00;0.27;139.56;;;;;14.30;1.00;;;;;;2275323;61;1895;-86
2021/01/30 13:04:56;265887.00;0.89;459.27;80913.00;0.27;140.61;;;;;14.30;1.00;;;;;;2272998;61;1129;-87
2021/01/30 13:07:23;431178.00;1.44;743.41;113941.00;0.38;197.63;;;;;14.20;1.00;;;;;;2273017;61;1113;-88
2021/01/30 13:09:49;327639.00;1.09;565.43;76243.00;0.25;132.55;;;;;14.20;1.00;;;;;;2273009;61;1392;-86
2021/01/30 13:12:17;473583.00;1.58;816.35;79366.00;0.26;137.94;;;;;13.90;1.00;;;;;;2273057;61;1192;-86
2021/01/30 13:14:43;192455.00;0.64;332.94;74508.00;0.25;129.55;;;;;13.90;1.00;;;;;;2273025;61;1253;-88
2021/01/30 13:17:10;352653.00;1.18;608.42;123648.00;0.41;214.37;;;;;13.70;1.00;;;;;;2273059;61;1024;-87
2021/01/30 13:19:38;198653.00;0.66;343.61;78309.00;0.26;136.12;;;;;13.40;1.00;;;;;;2273010;61;1394;-87
2021/01/30 13:22:05;203080.00;0.68;351.23;74845.00;0.25;130.13;;;;;13.80;1.00;;;;;;2273009;61;1027;-88
2021/01/30 13:24:32;206516.00;0.69;357.14;87554.00;0.29;152.08;;;;;14.00;1.00;;;;;;2272949;61;2017;-88
2021/01/30 13:27:03;116773120.00;389.24;64498716.00;78459.00;0.26;136.38;;;;;14.00;1.00;;;;;;2272997;61;1145;-88
2021/01/30 13:29:30;342378.00;1.14;590.76;78696.00;0.26;136.78;;;;;14.00;1.00;;;;;;2272919;61;1508;-88
2021/01/30 13:31:56;440101.00;1.47;758.76;124786.00;0.42;216.34;;;;;13.80;1.00;;;;;;2272926;61;1141;-88
2021/01/30 13:34:23;247590.00;0.83;427.81;86369.00;0.29;150.04;;;;;13.50;1.00;;;;;;2272937;61;1046;-88
2021/01/30 13:36:52;169409.00;0.56;293.25;75747.00;0.25;131.69;;;;;13.70;1.00;;;;;;2272904;61;1075;-88
2021/01/30 13:39:19;255524.00;0.85;441.45;74404.00;0.25;129.37;;;;;13.60;1.00;;;;;;2272928;61;1295;-87
2021/01/30 13:41:45;306257.00;1.02;528.68;84482.00;0.28;146.78;;;;;13.70;1.00;;;;;;2272948;61;929;-88
2021/01/30 13:44:13;274544.00;0.92;474.16;90002.00;0.30;156.31;;;;;13.90;1.00;;;;;;2272847;61;1992;-87
2021/01/30 13:46:39;197003.00;0.66;340.76;100110.00;0.33;173.76;;;;;13.70;1.00;;;;;;2272883;61;1146;-88
2021/01/30 13:49:06;33629.00;0.11;58.86;0.00;0.00;0.62;;;;;13.30;1.00;;;;;;2272841;61;1304;-88
2021/01/30 13:51:33;116978160.00;389.93;64839360.00;116934832.00;389.78;64767288.00;;;;;12.80;1.00;;;;;;2272835;61;1119;-87
2021/01/30 13:54:00;168055.00;0.56;290.92;0.00;0.00;0.62;;;;;12.70;1.00;;;;;;2272868;61;1137;-87
2021/01/30 13:56:27;270420.00;0.90;467.07;80092.00;0.27;139.20;;;;;12.80;1.00;;;;;;2272861;61;1722;-87
2021/01/30 13:58:54;305759.00;1.02;527.82;82563.00;0.28;143.46;;;;;12.90;1.00;;;;;;2272868;61;1269;-87
2021/01/30 14:01:21;176382.00;0.59;305.26;73887.00;0.25;128.48;;;;;13.00;1.00;;;;;;2272756;61;1131;-88
2021/01/30 14:03:47;300467.00;1.00;518.72;77652.00;0.26;134.98;;;;;13.20;1.00;;;;;;2272724;61;1993;-88
2021/01/30 14:06:14;257431.00;0.86;444.73;84727.00;0.28;147.20;;;;;13.30;1.00;;;;;;2272886;61;1042;-87
2021/01/30 14:08:40;234558.00;0.78;405.39;86181.00;0.29;149.71;;;;;13.40;1.00;;;;;;2272707;61;1384;-88
2021/01/30 14:11:08;0.00;0.00;0.62;0.00;0.00;0.62;;;;;13.10;1.00;;;;;;2272840;61;1115;-87
2021/01/30 14:13:34;135967.00;0.45;235.62;0.00;0.00;0.62;;;;;12.90;1.00;;;;;;2272616;61;1024;-87
2021/01/30 14:16:01;24248.00;0.08;42.63;0.00;0.00;0.62;;;;;12.90;1.00;;;;;;2272721;61;1070;-87
2021/01/30 14:18:27;193072.00;0.64;334.00;0.00;0.00;0.62;;;;;12.70;1.00;;;;;;2272731;61;1400;-87
2021/01/30 14:20:54;0.00;0.00;0.62;0.00;0.00;0.62;;;;;12.70;1.00;;;;;;2272777;61;1113;-86
2021/01/30 14:23:21;0.00;0.00;0.62;0.00;0.00;0.62;;;;;12.80;1.00;;;;;;2272716;61;1919;-88
2021/01/30 14:25:48;174048.00;0.58;301.24;0.00;0.00;0.62;;;;;12.80;1.00;;;;;;2272702;61;940;-87
2021/01/30 14:28:15;98695.00;0.33;171.32;0.00;0.00;0.62;;;;;12.90;1.00;;;;;;2272640;61;1621;-87
2021/01/30 14:30:41;76099.00;0.25;132.30;0.00;0.00;0.62;;;;;13.40;1.00;;;;;;2272732;61;1159;-87
2021/01/30 14:33:08;147278.00;0.49;255.12;0.00;0.00;0.62;;;;;13.30;1.00;;;;;;2272725;61;1111;-87
2021/01/30 14:35:34;297411.00;0.99;513.47;66664.00;0.22;116.00;;;;;13.20;1.00;;;;;;2272745;61;1150;-87
2021/01/30 14:38:01;100984.00;0.34;175.27;0.00;0.00;0.62;;;;;13.10;1.00;;;;;;2272796;61;1399;-87
2021/01/30 14:40:32;85528.00;0.29;148.59;0.00;0.00;0.62;;;;;13.10;1.00;;;;;;2272713;61;1643;-87
2021/01/30 14:42:58;122109.00;0.41;211.72;0.00;0.00;0.62;;;;;13.00;1.00;;;;;;2272728;61;2008;-87
2021/01/30 14:45:26;50072.00;0.17;87.31;0.00;0.00;0.62;;;;;12.80;1.00;;;;;;2272734;61;1154;-87
2021/01/30 14:47:53;67245.00;0.22;117.00;0.00;0.00;0.62;;;;;12.90;1.00;;;;;;2272699;61;1384;-87
2021/01/30 14:50:19;147681.00;0.49;255.81;0.00;0.00;0.62;;;;;13.00;1.00;;;;;;2272701;61;1139;-87
2021/01/30 14:52:46;178713.00;0.60;309.27;42082.00;0.14;73.49;;;;;12.90;1.00;;;;;;2272685;61;1106;-87
2021/01/30 14:55:13;123910.00;0.41;214.83;0.00;0.00;0.62;;;;;12.70;1.00;;;;;;2272707;61;990;-87
2021/01/30 14:57:39;52151.00;0.17;90.91;0.00;0.00;0.62;;;;;12.70;1.00;;;;;;2272667;61;1413;-88
2021/01/30 15:00:07;61478.00;0.20;107.03;0.00;0.00;0.62;;;;;12.40;1.00;;;;;;2272691;61;930;-88
2021/01/30 15:02:36;81194.00;0.27;141.10;0.00;0.00;0.62;;;;;12.30;1.00;;;;;;2272663;61;1052;-88
2021/01/30 15:05:02;0.00;0.00;0.62;0.00;0.00;0.62;;;;;12.40;1.00;;;;;;2272494;61;1940;-87
2021/01/30 15:07:29;79831.00;0.27;138.75;0.00;0.00;0.62;;;;;12.30;1.00;;;;;;2272703;61;1122;-87
2021/01/30 15:09:55;85706.00;0.29;148.89;0.00;0.00;0.62;;;;;12.40;1.00;;;;;;2272683;61;1260;-89
2021/01/30 15:12:22;243174.00;0.81;420.21;24610.00;0.08;43.25;;;;;12.50;1.00;;;;;;2272742;61;907;-87
2021/01/30 15:14:48;8251.00;0.03;14.92;0.00;0.00;0.62;;;;;12.40;1.00;;;;;;2272647;61;1115;-87
2021/01/30 15:17:15;89029.00;0.30;154.63;0.00;0.00;0.62;;;;;12.40;1.00;;;;;;2272634;61;1009;-88
2021/01/30 15:19:43;74569.00;0.25;129.66;0.00;0.00;0.62;;;;;12.30;1.00;;;;;;2272584;61;1732;-87
2021/01/30 15:22:09;4969.00;0.02;9.23;0.00;0.00;0.62;;;;;12.30;1.00;;;;;;2272638;61;916;-87
2021/01/30 15:24:36;54091.00;0.18;94.26;0.00;0.00;0.62;;;;;12.50;1.00;;;;;;2272605;61;1923;-87
2021/01/30 15:27:02;0.00;0.00;0.62;0.00;0.00;0.62;;;;;12.40;1.00;;;;;;2272605;61;1055;-88
2021/01/30 15:29:29;0.00;0.00;0.62;0.00;0.00;0.62;;;;;12.30;1.00;;;;;;2272634;61;1380;-88
2021/01/30 15:31:55;99425.00;0.33;172.58;0.00;0.00;0.62;;;;;12.20;1.00;;;;;;2272633;61;1067;-87
2021/01/30 15:34:23;12383.00;0.04;22.08;0.00;0.00;0.62;;;;;12.20;1.00;;;;;;2272657;61;1001;-87
2021/01/30 15:36:50;0.00;0.00;0.62;0.00;0.00;0.62;;;;;12.20;1.00;;;;;;2272598;61;1746;-88
2021/01/30 15:39:18;49201.00;0.16;85.80;0.00;0.00;0.62;;;;;12.10;1.00;;;;;;2272684;61;1281;-87
2021/01/30 15:41:45;90907.00;0.30;157.87;0.00;0.00;0.62;;;;;12.10;1.00;;;;;;2272675;61;1083;-84
2021/01/30 15:44:11;155786.00;0.52;269.78;33199.00;0.11;58.12;;;;;11.90;1.00;;;;;;2272539;61;2010;-85
2021/01/30 15:46:38;92522.00;0.31;160.66;0.00;0.00;0.62;;;;;11.60;1.00;;;;;;2272593;61;1063;-86
2021/01/30 15:49:05;53155.00;0.18;92.64;0.00;0.00;0.62;;;;;11.60;1.00;;;;;;2272537;61;1382;-86
2021/01/30 15:51:31;0.00;0.00;0.62;0.00;0.00;0.62;;;;;11.60;1.00;;;;;;2272629;61;1091;-86
2021/01/30 15:53:59;0.00;0.00;0.62;0.00;0.00;0.62;;;;;11.50;1.00;;;;;;2272632;61;983;-86
2021/01/30 15:56:26;7947.00;0.03;14.39;0.00;0.00;0.62;;;;;11.10;1.00;;;;;;2272580;61;1122;-86
2021/01/30 15:58:53;58889.00;0.20;102.56;0.00;0.00;0.62;;;;;11.20;1.00;;;;;;2272440;61;1665;-85
2021/01/30 16:01:20;36879.00;0.12;64.49;0.00;0.00;0.62;;;;;11.20;1.00;;;;;;2272448;61;1134;-86
2021/01/30 16:03:46;204505.00;0.68;353.68;0.00;0.00;0.62;;;;;11.30;1.00;;;;;;2272537;61;1918;-86
2021/01/30 16:06:12;131999.00;0.44;228.78;0.00;0.00;0.62;;;;;11.00;1.00;;;;;;2272602;61;1118;-86
2021/01/30 16:08:39;100406.00;0.33;174.27;0.00;0.00;0.62;;;;;10.70;1.00;;;;;;2272508;61;1433;-86
2021/01/30 16:11:06;8137.00;0.03;14.72;0.00;0.00;0.62;;;;;10.10;1.00;;;;;;2272540;61;1103;-87
2021/01/30 16:13:33;116776.00;0.39;202.52;31672.00;0.11;55.48;;;;;9.70;1.00;;;;;;2272544;61;1145;-86
2021/01/30 16:15:59;71406.00;0.24;124.19;0.00;0.00;0.62;;;;;9.60;1.00;;;;;;2273050;61;928;-85
2021/01/30 16:18:27;33527.00;0.11;58.69;0.00;0.00;0.62;;;;;9.60;1.00;;;;;;2273202;61;1314;-86
2021/01/30 16:20:55;2512.00;0.01;4.97;0.00;0.00;0.62;;;;;9.60;1.00;;;;;;2273265;61;1000;-86
2021/01/30 16:23:21;13525.00;0.05;24.06;0.00;0.00;0.62;;;;;9.80;1.00;;;;;;2273217;61;1998;-85
2021/01/30 16:25:48;297009.00;0.99;512.78;0.00;0.00;0.62;;;;;9.40;1.00;;;;;;2273227;61;946;-85
2021/01/30 16:28:16;46718.00;0.16;81.51;0.00;0.00;0.62;;;;;9.40;1.00;;;;;;2273134;61;1402;-87
2021/01/30 16:30:43;69153.00;0.23;120.30;0.00;0.00;0.62;;;;;9.50;1.00;;;;;;2273207;61;1075;-86
2021/01/30 16:33:10;0.00;0.00;0.62;0.00;0.00;0.62;;;;;9.70;1.00;;;;;;2273240;61;1107;-87
2021/01/30 16:35:36;149867.00;0.50;259.58;44420.00;0.15;77.53;;;;;9.60;1.00;;;;;;2273177;61;1039;-86
2021/01/30 16:38:03;35539.00;0.12;62.17;0.00;0.00;0.62;;;;;9.40;1.00;;;;;;2273161;61;1363;-86
2021/01/30 16:40:29;153687.00;0.51;266.16;0.00;0.00;0.62;;;;;9.30;1.00;;;;;;2273164;61;1360;-85
2021/01/30 16:42:56;0.00;0.00;0.62;0.00;0.00;0.62;;;;;9.20;1.00;;;;;;2273150;61;1918;-85
2021/01/30 16:45:24;25724.00;0.09;45.18;0.00;0.00;0.62;;;;;9.10;1.00;;;;;;2273184;61;1086;-89
2021/01/30 16:47:51;31858.00;0.11;55.80;0.00;0.00;0.62;;;;;9.10;1.00;;;;;;2273104;61;1284;-87
2021/01/30 16:50:18;113257.00;0.38;196.45;0.00;0.00;0.62;;;;;9.10;1.00;;;;;;2273107;61;1754;-88
2021/01/30 16:52:45;22784.00;0.08;40.09;0.00;0.00;0.62;;;;;8.90;1.00;;;;;;2273183;61;1138;-87
2021/01/30 16:55:12;2439.00;0.01;4.85;0.00;0.00;0.62;;;;;8.80;1.00;;;;;;2273143;61;1183;-87
2021/01/30 16:57:39;160263.00;0.53;277.49;0.00;0.00;0.62;;;;;8.60;1.00;;;;;;2273141;61;1390;-87
2021/01/30 17:00:08;0.00;0.00;0.62;0.00;0.00;0.62;;;;;8.70;1.00;;;;;;2273193;61;1042;-87
2021/01/30 17:02:35;0.00;0.00;0.62;0.00;0.00;0.62;;;;;8.60;1.00;;;;;;2273125;61;1160;-88
2021/01/30 17:05:02;9015.00;0.03;16.24;0.00;0.00;0.62;;;;;8.60;1.00;;;;;;2273093;61;1971;-87
2021/01/30 17:07:29;42208.00;0.14;73.71;0.00;0.00;0.62;;;;;8.70;1.00;;;;;;2273174;61;1011;-87
2021/01/30 17:09:55;23518.00;0.08;41.36;0.00;0.00;0.62;;;;;8.70;1.00;;;;;;2273148;61;1588;-87
2021/01/30 17:12:22;110328.00;0.37;191.40;0.00;0.00;0.62;;;;;9.00;1.00;;;;;;2273154;61;1121;-87
2021/01/30 17:14:49;297.00;0.00;1.13;0.00;0.00;0.62;;;;;8.80;1.00;;;;;;2273144;61;1094;-87
2021/01/30 17:17:15;0.00;0.00;0.62;0.00;0.00;0.62;;;;;8.70;1.00;;;;;;2273184;61;1011;-87
2021/01/30 17:19:43;24091.00;0.08;42.35;0.00;0.00;0.62;;;;;8.70;1.00;;;;;;2273124;61;1426;-88
2021/01/30 17:22:12;0.00;0.00;0.62;0.00;0.00;0.62;;;;;8.90;1.00;;;;;;2273118;61;1059;-86
2021/01/30 17:24:39;114677.00;0.38;198.90;0.00;0.00;0.62;;;;;9.00;1.00;;;;;;2273069;61;2006;-87
2021/01/30 17:27:05;102765.00;0.34;178.34;0.00;0.00;0.62;;;;;8.90;1.00;;;;;;2272906;61;908;-88
2021/01/30 17:29:32;10576.00;0.04;18.95;0.00;0.00;0.62;;;;;8.90;1.00;;;;;;2273012;61;1665;-87
2021/01/30 17:32:01;31233.00;0.10;54.72;0.00;0.00;0.62;;;;;8.80;1.00;;;;;;2273070;61;914;-89
2021/01/30 17:34:28;0.00;0.00;0.62;0.00;0.00;0.62;;;;;8.80;1.00;;;;;;2272993;61;1455;-86
2021/01/30 17:36:55;230392.00;0.77;398.22;15966.00;0.05;28.28;;;;;9.00;1.00;;;;;;2273031;61;937;-87
2021/01/30 17:39:22;0.00;0.00;0.62;0.00;0.00;0.62;;;;;9.00;1.00;;;;;;2272863;61;1565;-87
2021/01/30 17:41:48;13531.00;0.05;24.07;0.00;0.00;0.62;;;;;9.00;1.00;;;;;;2273031;61;981;-87
2021/01/30 17:44:14;84416.00;0.28;146.66;0.00;0.00;0.62;;;;;9.00;1.00;;;;;;2272961;61;1989;-87
2021/01/30 17:46:41;4507.00;0.02;8.43;0.00;0.00;0.62;;;;;8.70;1.00;;;;;;2272954;61;1089;-87
2021/01/30 17:49:07;76283.00;0.25;132.62;0.00;0.00;0.62;;;;;8.70;1.00;;;;;;2272977;61;1390;-88
2021/01/30 17:51:34;30602.00;0.10;53.63;0.00;0.00;0.62;;;;;8.50;1.00;;;;;;2272999;61;1084;-87
2021/01/30 17:54:01;21529.00;0.07;37.92;0.00;0.00;0.62;;;;;8.10;1.00;;;;;;2272940;61;1006;-86
2021/01/30 17:56:27;25142.00;0.08;44.17;0.00;0.00;0.62;;;;;8.00;1.50;;;;;;2272911;61;1078;-87
2021/01/30 17:58:54;170799.00;0.57;295.64;0.00;0.00;0.62;;;;;8.20;1.90;;;;;;2272912;61;1286;-88
2021/01/30 18:01:20;70410.00;0.23;122.47;0.00;0.00;0.62;;;;;8.20;1.30;;;;;;2272892;61;1730;-87
2021/01/30 18:03:47;129177.00;0.43;223.91;29373.00;0.10;51.50;;;;;8.50;1.00;;;;;;2272768;61;2008;-88
2021/01/30 18:06:13;0.00;0.00;0.62;0.00;0.00;0.62;;;;;8.60;1.00;;;;;;2272853;61;1000;-88
2021/01/30 18:08:40;101312.00;0.34;175.84;0.00;0.00;0.62;;;;;8.60;1.00;;;;;;2272808;61;1396;-87
2021/01/30 18:11:07;433428.00;1.44;747.28;55282.00;0.18;96.32;;;;;8.70;1.00;;;;;;2272878;61;1024;-87
2021/01/30 18:13:34;66210.00;0.22;115.21;0.00;0.00;0.62;;;;;8.60;1.00;;;;;;2272894;61;1047;-88
2021/01/30 18:16:00;56442.00;0.19;98.33;0.00;0.00;0.62;;;;;8.70;1.00;;;;;;2272835;61;1051;-87
2021/01/30 18:18:26;23286.00;0.08;40.96;0.00;0.00;0.62;;;;;8.70;1.00;;;;;;2272794;61;1392;-86
2021/01/30 18:20:53;392099.00;1.31;676.22;15812.00;0.05;28.02;;;;;8.70;1.00;;;;;;2272851;61;1133;-88
2021/01/30 18:23:20;0.00;0.00;0.62;0.00;0.00;0.62;;;;;8.20;1.20;;;;;;2272830;61;1920;-88
2021/01/30 18:25:48;62918.00;0.21;109.52;0.00;0.00;0.62;;;;;8.20;1.00;;;;;;2272808;61;1105;-87
2021/01/30 18:28:15;198464.00;0.66;343.28;23505.00;0.08;41.34;;;;;8.50;1.00;;;;;;2272857;61;1307;-86
2021/01/30 18:30:42;39666.00;0.13;69.31;0.00;0.00;0.62;;;;;8.60;1.00;;;;;;2272899;61;1753;-86
2021/01/30 18:33:12;125766.00;0.42;218.03;0.00;0.00;0.62;;;;;8.60;1.00;;;;;;2272836;61;1549;-87
2021/01/30 18:35:38;0.00;0.00;0.62;0.00;0.00;0.62;;;;;8.40;1.00;;;;;;2272897;61;1067;-88
2021/01/30 18:38:05;20650.00;0.07;36.40;0.00;0.00;0.62;;;;;8.20;1.40;;;;;;2272831;61;1315;-86
2021/01/30 18:40:33;12291.00;0.04;21.92;0.00;0.00;0.62;;;;;8.20;1.70;;;;;;2272868;61;1025;-88
2021/01/30 18:42:59;118669.00;0.40;205.79;0.00;0.00;0.62;;;;;8.10;2.10;;;;;;2272824;61;1047;-86
2021/01/30 18:45:29;104140.00;0.35;180.72;0.00;0.00;0.62;;;;;8.10;1.70;;;;;;2272730;61;1932;-88
2021/01/30 18:47:56;61144.00;0.20;106.45;0.00;0.00;0.62;;;;;8.30;1.50;;;;;;2272771;61;1323;-87
2021/01/30 18:50:24;40519.00;0.14;70.79;0.00;0.00;0.62;;;;;8.20;1.90;;;;;;2272800;61;1028;-88
2021/01/30 18:52:51;86917.00;0.29;150.98;5181.00;0.02;9.60;;;;;8.20;2.40;;;;;;2272722;61;1837;-87
2021/01/30 18:55:19;95979.00;0.32;166.63;0.00;0.00;0.62;;;;;8.30;1.60;;;;;;2272797;61;945;-87
2021/01/30 18:57:46;108754.00;0.36;188.68;0.00;0.00;0.62;;;;;8.50;1.00;;;;;;2272706;61;1577;-87
2021/01/30 19:34:51;477790.00;1.59;823.59;83099.00;0.28;144.39;;;;;8.70;1.00;;;;;;2275003;61;898;-90
2021/01/30 19:37:18;374636.00;1.25;646.21;78469.00;0.26;136.39;;;;;8.40;1.00;;;;;;2273229;61;391;-90
2021/01/30 19:42:12;118195536.00;393.99;66886676.00;83732.00;0.28;145.48;;;;;7.60;3.80;;;;;;2274844;61;1327;-89
2021/01/30 19:44:39;654871.00;2.18;1129.06;87715.00;0.29;152.36;;;;;7.90;3.90;;;;;;2273221;61;1968;-89
2021/01/30 19:47:05;311889.00;1.04;538.36;80004.00;0.27;139.04;;;;;8.10;2.80;;;;;;2273282;61;493;-89
2021/01/30 19:56:58;271845.00;0.91;469.52;89947.00;0.30;156.22;;;;;8.80;1.00;;;;;;2282967;61;973;-88
2021/01/30 20:21:37;373989.00;1.25;645.09;83032.00;0.28;144.27;;;;;8.10;1.70;;;;;;2282890;61;1302;-90
2021/01/30 20:24:05;329484.00;1.10;568.60;77861.00;0.26;135.34;;;;;8.10;2.20;;;;;;2280842;61;2030;-90
2021/01/30 20:26:33;351771.00;1.17;606.91;87303.00;0.29;151.65;;;;;8.30;1.70;;;;;;2280978;61;794;-90
2021/01/30 20:31:29;436683.00;1.46;752.88;80489.00;0.27;139.88;;;;;8.50;1.00;;;;;;2279015;61;1330;-89
2021/01/30 20:33:56;373464.00;1.24;644.19;71786.00;0.24;124.85;;;;;8.50;1.00;;;;;;2268583;61;833;-90
2021/01/30 20:36:22;518808.00;1.73;894.21;82330.00;0.27;143.06;;;;;8.20;2.00;;;;;;2256548;61;929;-90
2021/01/30 20:41:19;632581.00;2.11;1090.51;77119.00;0.26;134.06;;;;;8.20;1.90;;;;;;2279151;61;1183;-90
2021/01/30 20:43:46;689950.00;2.30;1189.82;83454.00;0.28;145.00;;;;;8.30;1.60;;;;;;2277139;61;1973;-89
2021/01/30 20:46:15;739459.00;2.46;1275.73;81558.00;0.27;141.73;;;;;8.30;1.40;;;;;;2268541;61;808;-89
2021/01/30 20:51:11;551806.00;1.84;951.07;82868.00;0.28;143.99;;;;;8.20;1.60;;;;;;2282658;61;1371;-88
2021/01/30 20:56:09;356744.00;1.19;615.45;0.00;0.00;0.62;;;;;8.20;2.40;;;;;;2282643;61;1274;-90
2021/01/30 21:01:07;440853.00;1.47;760.05;0.00;0.00;0.62;;;;;7.80;3.60;;;;;;2283250;61;1337;-90
2021/01/30 21:03:33;367687.00;1.23;634.26;0.00;0.00;0.62;;;;;7.70;4.30;;;;;;2277240;61;1987;-90
2021/01/30 21:13:29;276377.00;0.92;477.31;0.00;0.00;0.62;;;;;8.10;2.30;;;;;;2520207;55;3596;31
2021/01/30 22:12:50;63490.00;0.21;110.51;0.00;0.00;0.62;;;;;7.70;4.10;;;;;;2278919;61;903;-90
2021/01/30 22:15:17;89702.00;0.30;155.79;0.00;0.00;0.62;;;;;7.50;4.10;;;;;;2277606;61;387;-90
2021/01/30 22:47:49;102369.00;0.34;177.66;0.00;0.00;0.62;;;;;7.20;4.40;;;;;;2427742;55;3226;31
